createdAt,value
2019-06-26T00:00:58.088Z,83.95
2019-06-26T00:01:58.060Z,84.35
2019-06-26T00:02:58.061Z,84.75
2019-06-26T00:03:58.049Z,83.85
2019-06-26T00:04:58.169Z,84.25
2019-06-26T00:05:58.029Z,84.25
2019-06-26T00:06:58.019Z,84.25
2019-06-26T00:07:57.994Z,84.35
2019-06-26T00:08:57.978Z,83.35
2019-06-26T00:09:57.986Z,84.25
2019-06-26T00:10:57.983Z,83.65
2019-06-26T00:11:57.969Z,83.45
2019-06-26T00:12:57.954Z,84.75
2019-06-26T00:13:57.934Z,83.55
2019-06-26T00:14:57.931Z,84.15
2019-06-26T00:15:57.907Z,83.49
2019-06-26T00:16:57.916Z,84.25
2019-06-26T00:17:57.886Z,84.29
2019-06-26T00:18:57.877Z,84.29
2019-06-26T00:19:57.882Z,84.69
2019-06-26T00:20:57.868Z,84.79
2019-06-26T00:21:57.842Z,84.99
2019-06-26T00:22:57.845Z,84.89
2019-06-26T00:23:57.829Z,84.29
2019-06-26T00:24:57.815Z,84.69
2019-06-26T00:25:57.824Z,85.29
2019-06-26T00:26:57.807Z,86.39
2019-06-26T00:27:57.788Z,84.69
2019-06-26T00:28:57.770Z,85.09
2019-06-26T00:29:57.756Z,85.99
2019-06-26T00:30:57.787Z,84.99
2019-06-26T00:31:57.739Z,84.69
2019-06-26T00:32:57.723Z,84.69
2019-06-26T00:33:57.709Z,85.19
2019-06-26T00:34:57.709Z,86.19
2019-06-26T00:35:57.738Z,85.79
2019-06-26T00:36:57.689Z,84.49
2019-06-26T00:37:57.681Z,85.29
2019-06-26T00:38:57.703Z,84.49
2019-06-26T00:39:57.653Z,84.79
2019-06-26T00:40:57.656Z,83.99
2019-06-26T00:41:57.625Z,83.99
2019-06-26T00:42:57.629Z,84.49
2019-06-26T00:43:57.625Z,84.39
2019-06-26T00:44:57.596Z,84.29
2019-06-26T00:45:57.631Z,84.79
2019-06-26T00:46:57.584Z,84.29
2019-06-26T00:47:57.563Z,84.09
2019-06-26T00:48:57.561Z,84.89
2019-06-26T00:49:57.555Z,84.29
2019-06-26T00:50:57.557Z,84.33
2019-06-26T00:51:57.542Z,84.43
2019-06-26T00:52:57.584Z,84.19
2019-06-26T00:53:57.505Z,85.79
2019-06-26T00:54:57.509Z,84.83
2019-06-26T00:55:57.498Z,84.63
2019-06-26T00:56:57.477Z,84.83
2019-06-26T00:57:57.510Z,85.13
2019-06-26T00:58:57.459Z,85.83
2019-06-26T00:59:57.444Z,85.13
2019-06-26T01:00:57.452Z,85.93
2019-06-26T01:01:57.451Z,85.73
2019-06-26T01:02:57.401Z,85.13
2019-06-26T01:03:57.500Z,85.83
2019-06-26T01:04:57.407Z,85.13
2019-06-26T01:05:57.380Z,85.43
2019-06-26T01:06:57.373Z,85.73
2019-06-26T01:07:57.397Z,85.33
2019-06-26T01:08:57.338Z,84.93
2019-06-26T01:09:57.360Z,84.83
2019-06-26T01:10:57.342Z,85.13
2019-06-26T01:11:57.324Z,85.83
2019-06-26T01:12:57.314Z,85.53
2019-06-26T01:13:58.447Z,85.33
2019-06-26T01:14:57.288Z,85.33
2019-06-26T01:15:57.293Z,85.53
2019-06-26T01:16:57.262Z,85.83
2019-06-26T01:17:57.260Z,86.13
2019-06-26T01:18:57.285Z,86.43
2019-06-26T01:19:57.217Z,86.07
2019-06-26T01:20:57.222Z,85.33
2019-06-26T01:21:57.222Z,85.43
2019-06-26T01:22:57.217Z,85.93
2019-06-26T01:23:57.187Z,86.13
2019-06-26T01:24:57.201Z,85.93
2019-06-26T01:25:57.165Z,85.97
2019-06-26T01:26:57.157Z,86.18
2019-06-26T01:27:57.177Z,86.18
2019-06-26T01:28:57.137Z,86.07
2019-06-26T01:29:57.143Z,86.27
2019-06-26T01:30:57.131Z,86.07
2019-06-26T01:31:57.094Z,86.18
2019-06-26T01:32:57.088Z,86.27
2019-06-26T01:33:57.090Z,86.37
2019-06-26T01:34:57.075Z,86.18
2019-06-26T01:35:57.065Z,85.97
2019-06-26T01:36:57.064Z,86.07
2019-06-26T01:37:57.038Z,85.97
2019-06-26T01:38:57.041Z,86.37
2019-06-26T01:39:57.035Z,86.47
2019-06-26T01:40:57.006Z,86.87
2019-06-26T01:41:56.997Z,86.37
2019-06-26T01:42:57.033Z,86.57
2019-06-26T01:43:56.994Z,86.87
2019-06-26T01:44:56.958Z,86.77
2019-06-26T01:45:56.982Z,86.98
2019-06-26T01:46:56.958Z,86.47
2019-06-26T01:47:56.933Z,86.87
2019-06-26T01:48:56.926Z,86.87
2019-06-26T01:49:56.900Z,86.87
2019-06-26T01:50:56.950Z,86.82
2019-06-26T01:51:56.910Z,86.91
2019-06-26T01:52:56.873Z,87.02
2019-06-26T01:53:56.858Z,87.12
2019-06-26T01:54:56.861Z,87.12
2019-06-26T01:55:56.837Z,87.92
2019-06-26T01:56:56.831Z,87.62
2019-06-26T01:57:56.866Z,87.02
2019-06-26T01:58:56.824Z,88.02
2019-06-26T01:59:56.797Z,87.92
2019-06-26T02:00:56.786Z,87.82
2019-06-26T02:01:56.800Z,87.92
2019-06-26T02:02:56.787Z,88.32
2019-06-26T02:03:56.749Z,87.92
2019-06-26T02:04:56.761Z,87.92
2019-06-26T02:05:56.740Z,88.12
2019-06-26T02:06:56.778Z,88.21
2019-06-26T02:07:56.704Z,87.92
2019-06-26T02:08:56.704Z,87.96
2019-06-26T02:09:56.698Z,87.92
2019-06-26T02:10:56.680Z,88.21
2019-06-26T02:11:57.540Z,88.12
2019-06-26T02:12:56.656Z,88.06
2019-06-26T02:13:56.646Z,88.32
2019-06-26T02:14:56.636Z,88.46
2019-06-26T02:15:56.625Z,87.82
2019-06-26T02:16:56.618Z,88.21
2019-06-26T02:17:56.644Z,88.32
2019-06-26T02:18:56.596Z,88.02
2019-06-26T02:19:56.601Z,88.12
2019-06-26T02:20:56.574Z,88.21
2019-06-26T02:21:56.596Z,88.12
2019-06-26T02:22:56.556Z,88.32
2019-06-26T02:23:56.542Z,88.32
2019-06-26T02:24:56.544Z,88.16
2019-06-26T02:25:56.524Z,88.12
2019-06-26T02:26:56.526Z,87.86
2019-06-26T02:27:56.537Z,88.12
2019-06-26T02:28:56.500Z,88.21
2019-06-26T02:29:56.482Z,88.12
2019-06-26T02:30:56.689Z,87.82
2019-06-26T02:31:56.516Z,88.42
2019-06-26T02:32:56.463Z,88.21
2019-06-26T02:33:56.436Z,88.46
2019-06-26T02:34:56.431Z,88.66
2019-06-26T02:35:56.425Z,88.76
2019-06-26T02:36:56.413Z,88.76
2019-06-26T02:37:56.413Z,88.76
2019-06-26T02:38:56.390Z,88.66
2019-06-26T02:39:56.387Z,88.36
2019-06-26T02:40:56.372Z,89.16
2019-06-26T02:41:56.398Z,89.26
2019-06-26T02:42:56.348Z,89.76
2019-06-26T02:43:56.339Z,89.56
2019-06-26T02:44:56.316Z,89.46
2019-06-26T02:45:56.317Z,89.86
2019-06-26T02:47:17.247Z,89.36
2019-06-26T02:47:57.283Z,89.16
2019-06-26T02:48:56.291Z,89.66
2019-06-26T02:49:56.295Z,89.56
2019-06-26T02:50:56.254Z,89.66
2019-06-26T02:51:56.277Z,89.46
2019-06-26T02:52:56.248Z,89.70
2019-06-26T02:53:56.220Z,89.70
2019-06-26T02:54:56.258Z,89.16
2019-06-26T02:55:56.199Z,89.56
2019-06-26T02:56:56.188Z,89.40
2019-06-26T02:57:56.186Z,89.46
2019-06-26T02:58:56.177Z,89.81
2019-06-26T02:59:56.190Z,89.66
2019-06-26T03:00:56.147Z,88.46
2019-06-26T03:01:56.139Z,89.06
2019-06-26T03:02:56.133Z,88.66
2019-06-26T03:03:56.233Z,88.56
2019-06-26T03:04:56.130Z,88.66
2019-06-26T03:05:56.095Z,88.46
2019-06-26T03:06:56.123Z,88.66
2019-06-26T03:07:56.097Z,88.66
2019-06-26T03:08:56.062Z,88.66
2019-06-26T03:09:56.057Z,88.16
2019-06-26T03:10:56.036Z,89.26
2019-06-26T03:11:56.033Z,89.06
2019-06-26T03:12:56.026Z,89.36
2019-06-26T03:13:56.010Z,89.06
2019-06-26T03:15:08.124Z,89.46
2019-06-26T03:15:56.997Z,89.20
2019-06-26T03:16:55.986Z,89.70
2019-06-26T03:17:56.035Z,89.70
2019-06-26T03:18:56.027Z,89.50
2019-06-26T03:19:55.957Z,89.61
2019-06-26T03:20:55.961Z,89.61
2019-06-26T03:21:55.926Z,89.50
2019-06-26T03:22:55.939Z,89.81
2019-06-26T03:23:55.902Z,90.61
2019-06-26T03:24:55.909Z,90.00
2019-06-26T03:25:55.877Z,90.61
2019-06-26T03:26:55.865Z,90.31
2019-06-26T03:27:55.869Z,90.61
2019-06-26T03:28:55.906Z,90.70
2019-06-26T03:29:55.832Z,90.81
2019-06-26T03:30:55.820Z,91.01
2019-06-26T03:31:55.818Z,90.41
2019-06-26T03:32:55.817Z,91.45
2019-06-26T03:33:55.795Z,91.25
2019-06-26T03:34:56.014Z,91.75
2019-06-26T03:35:55.819Z,91.31
2019-06-26T03:36:55.757Z,91.25
2019-06-26T03:37:55.774Z,91.65
2019-06-26T03:38:55.762Z,90.31
2019-06-26T03:39:55.733Z,91.45
2019-06-26T03:40:55.712Z,90.85
2019-06-26T03:41:55.719Z,91.15
2019-06-26T03:42:55.711Z,91.25
2019-06-26T03:43:55.723Z,91.11
2019-06-26T03:44:55.677Z,91.25
2019-06-26T03:45:55.721Z,91.31
2019-06-26T03:46:55.652Z,90.91
2019-06-26T03:47:55.655Z,91.20
2019-06-26T03:48:55.631Z,90.91
2019-06-26T03:49:55.637Z,91.41
2019-06-26T03:50:55.612Z,91.01
2019-06-26T03:51:55.616Z,91.20
2019-06-26T03:52:55.612Z,91.20
2019-06-26T03:53:55.586Z,91.41
2019-06-26T03:54:55.566Z,91.20
2019-06-26T03:55:55.602Z,91.11
2019-06-26T03:56:55.552Z,90.81
2019-06-26T03:57:55.548Z,90.50
2019-06-26T03:58:55.532Z,90.41
2019-06-26T03:59:55.663Z,90.11
2019-06-26T04:00:55.513Z,90.31
2019-06-26T04:01:55.525Z,90.11
2019-06-26T04:02:55.492Z,89.90
2019-06-26T04:03:57.459Z,90.31
2019-06-26T04:04:55.468Z,89.70
2019-06-26T04:05:55.502Z,89.50
2019-06-26T04:06:55.470Z,89.50
2019-06-26T04:07:55.431Z,89.50
2019-06-26T04:08:55.454Z,89.06
2019-06-26T04:09:55.427Z,89.86
2019-06-26T04:10:55.403Z,89.16
2019-06-26T04:11:55.395Z,89.56
2019-06-26T04:12:55.391Z,89.76
2019-06-26T04:13:55.461Z,89.26
2019-06-26T04:14:55.353Z,90.36
2019-06-26T04:15:55.343Z,89.66
2019-06-26T04:16:55.335Z,89.46
2019-06-26T04:17:55.329Z,89.66
2019-06-26T04:18:55.328Z,89.56
2019-06-26T04:19:55.296Z,89.76
2019-06-26T04:20:55.301Z,89.76
2019-06-26T04:21:55.313Z,88.86
2019-06-26T04:22:55.268Z,89.86
2019-06-26T04:23:55.273Z,89.16
2019-06-26T04:24:55.257Z,89.76
2019-06-26T04:25:55.238Z,89.26
2019-06-26T04:26:55.226Z,88.46
2019-06-26T04:27:55.254Z,89.06
2019-06-26T04:28:55.209Z,89.36
2019-06-26T04:29:55.213Z,88.52
2019-06-26T04:30:55.195Z,88.52
2019-06-26T04:31:55.181Z,88.21
2019-06-26T04:32:55.176Z,88.42
2019-06-26T04:33:55.145Z,88.71
2019-06-26T04:34:55.154Z,89.22
2019-06-26T04:35:55.148Z,89.12
2019-06-26T04:36:55.115Z,89.22
2019-06-26T04:37:55.133Z,89.32
2019-06-26T04:38:55.164Z,89.12
2019-06-26T04:39:55.101Z,89.22
2019-06-26T04:40:55.072Z,89.62
2019-06-26T04:41:55.059Z,89.72
2019-06-26T04:42:55.049Z,89.02
2019-06-26T04:43:55.065Z,89.52
2019-06-26T04:44:55.064Z,89.52
2019-06-26T04:45:58.519Z,89.22
2019-06-26T04:46:55.054Z,88.71
2019-06-26T04:47:55.050Z,88.57
2019-06-26T04:48:55.038Z,88.82
2019-06-26T04:49:55.029Z,89.32
2019-06-26T04:50:55.065Z,88.57
2019-06-26T04:51:55.005Z,88.48
2019-06-26T04:52:54.953Z,89.18
2019-06-26T04:53:55.822Z,89.07
2019-06-26T04:54:54.944Z,88.98
2019-06-26T04:55:54.968Z,89.07
2019-06-26T04:56:54.988Z,88.57
2019-06-26T04:57:54.972Z,89.07
2019-06-26T04:58:54.966Z,88.28
2019-06-26T04:59:54.894Z,88.28
2019-06-26T05:00:54.902Z,88.23
2019-06-26T05:01:54.907Z,87.83
2019-06-26T05:02:54.932Z,87.53
2019-06-26T05:03:54.911Z,87.83
2019-06-26T05:04:54.824Z,88.23
2019-06-26T05:05:54.874Z,87.53
2019-06-26T05:06:54.841Z,87.53
2019-06-26T05:07:54.827Z,87.63
2019-06-26T05:08:54.853Z,87.19
2019-06-26T05:09:54.899Z,87.49
2019-06-26T05:10:54.785Z,86.83
2019-06-26T05:11:54.769Z,87.39
2019-06-26T05:12:54.761Z,87.69
2019-06-26T05:13:54.775Z,87.29
2019-06-26T05:14:54.837Z,87.09
2019-06-26T05:15:55.583Z,88.29
2019-06-26T05:16:54.738Z,88.19
2019-06-26T05:17:54.867Z,88.19
2019-06-26T05:18:54.702Z,88.09
2019-06-26T05:19:54.669Z,88.75
2019-06-26T05:20:55.486Z,88.35
2019-06-26T05:21:54.738Z,88.35
2019-06-26T05:22:54.664Z,89.55
2019-06-26T05:23:54.674Z,88.05
2019-06-26T05:24:54.647Z,88.15
2019-06-26T05:25:54.646Z,88.51
2019-06-26T05:26:54.602Z,88.51
2019-06-26T05:27:54.625Z,88.31
2019-06-26T05:28:54.610Z,88.01
2019-06-26T05:29:54.644Z,88.40
2019-06-26T05:30:54.593Z,87.71
2019-06-26T05:31:54.629Z,87.16
2019-06-26T05:32:54.513Z,87.37
2019-06-26T05:33:54.569Z,87.16
2019-06-26T05:34:55.513Z,88.17
2019-06-26T05:35:54.521Z,87.57
2019-06-26T05:36:54.510Z,87.87
2019-06-26T05:37:54.579Z,86.36
2019-06-26T05:38:55.480Z,86.63
2019-06-26T05:39:54.873Z,88.32
2019-06-26T05:40:54.565Z,88.22
2019-06-26T05:41:54.474Z,86.22
2019-06-26T05:42:54.488Z,86.43
2019-06-26T05:43:55.449Z,86.82
2019-06-26T05:44:54.430Z,87.32
2019-06-26T05:45:54.439Z,87.28
2019-06-26T05:46:54.481Z,85.49
2019-06-26T05:47:54.389Z,85.99
2019-06-26T05:48:54.431Z,85.99
2019-06-26T05:49:54.423Z,84.59
2019-06-26T05:50:54.362Z,85.49
2019-06-26T05:51:54.998Z,85.78
2019-06-26T05:52:54.367Z,84.65
2019-06-26T05:53:54.319Z,85.44
2019-06-26T05:54:54.326Z,85.74
2019-06-26T05:55:54.329Z,84.55
2019-06-26T05:56:54.287Z,86.15
2019-06-26T05:57:54.281Z,85.00
2019-06-26T05:58:54.556Z,83.61
2019-06-26T05:59:54.285Z,84.15
2019-06-26T06:00:54.273Z,82.21
2019-06-26T06:01:54.998Z,84.11
2019-06-26T06:02:54.954Z,84.41
2019-06-26T06:03:54.402Z,83.41
2019-06-26T06:04:54.344Z,82.81
2019-06-26T06:05:54.209Z,83.41
2019-06-26T06:06:54.189Z,82.62
2019-06-26T06:07:54.204Z,82.71
2019-06-26T06:08:54.170Z,81.92
2019-06-26T06:09:54.188Z,82.57
2019-06-26T06:10:57.180Z,82.97
2019-06-26T06:11:54.134Z,82.37
2019-06-26T06:12:54.091Z,82.18
2019-06-26T06:13:54.165Z,81.38
2019-06-26T06:14:54.124Z,82.07
2019-06-26T06:15:54.127Z,81.18
2019-06-26T06:16:54.263Z,81.28
2019-06-26T06:17:54.094Z,81.38
2019-06-26T06:18:54.029Z,81.28
2019-06-26T06:19:54.106Z,82.04
2019-06-26T06:20:54.062Z,81.38
2019-06-26T06:21:54.015Z,81.28
2019-06-26T06:22:54.119Z,81.44
2019-06-26T06:23:54.018Z,81.44
2019-06-26T06:24:54.058Z,81.94
2019-06-26T06:25:54.972Z,81.50
2019-06-26T06:26:54.068Z,80.60
2019-06-26T06:27:53.942Z,80.41
2019-06-26T06:28:53.941Z,80.30
2019-06-26T06:29:53.959Z,80.41
2019-06-26T06:30:53.947Z,80.30
2019-06-26T06:31:53.916Z,79.47
2019-06-26T06:32:53.969Z,79.21
2019-06-26T06:33:53.939Z,80.41
2019-06-26T06:34:53.892Z,79.87
2019-06-26T06:35:53.887Z,79.87
2019-06-26T06:36:53.905Z,79.47
2019-06-26T06:37:53.858Z,78.44
2019-06-26T06:38:54.461Z,78.38
2019-06-26T06:39:53.832Z,78.38
2019-06-26T06:40:53.854Z,78.48
2019-06-26T06:41:53.824Z,78.44
2019-06-26T06:42:53.963Z,79.03
2019-06-26T06:43:54.490Z,78.24
2019-06-26T06:44:54.801Z,78.04
2019-06-26T06:45:53.816Z,79.03
2019-06-26T06:47:03.526Z,79.20
2019-06-26T06:47:54.758Z,78.14
2019-06-26T06:48:53.769Z,78.04
2019-06-26T06:49:53.754Z,77.61
2019-06-26T06:50:53.769Z,78.00
2019-06-26T06:51:53.750Z,77.11
2019-06-26T06:52:53.686Z,77.11
2019-06-26T06:53:53.674Z,76.91
2019-06-26T06:54:53.696Z,77.11
2019-06-26T06:55:53.640Z,76.51
2019-06-26T06:56:53.675Z,77.11
2019-06-26T06:57:53.643Z,77.01
2019-06-26T06:58:53.606Z,76.38
2019-06-26T06:59:53.590Z,76.18
2019-06-26T07:00:53.617Z,75.98
2019-06-26T07:01:53.570Z,76.57
2019-06-26T07:02:53.562Z,76.08
2019-06-26T07:03:53.584Z,76.25
2019-06-26T07:04:53.543Z,76.38
2019-06-26T07:05:53.528Z,76.34
2019-06-26T07:06:53.751Z,76.10
2019-06-26T07:07:53.521Z,74.82
2019-06-26T07:08:53.502Z,74.62
2019-06-26T07:09:53.503Z,74.62
2019-06-26T07:10:53.481Z,74.91
2019-06-26T07:11:53.494Z,74.78
2019-06-26T07:12:53.466Z,73.46
2019-06-26T07:13:53.448Z,73.16
2019-06-26T07:14:53.437Z,71.83
2019-06-26T07:15:53.446Z,70.84
2019-06-26T07:16:53.422Z,70.65
2019-06-26T07:17:53.411Z,71.04
2019-06-26T07:18:53.463Z,72.13
2019-06-26T07:19:53.390Z,70.81
2019-06-26T07:20:53.418Z,71.24
2019-06-26T07:21:53.386Z,71.24
2019-06-26T07:22:53.382Z,70.45
2019-06-26T07:23:53.345Z,70.71
2019-06-26T07:24:53.347Z,70.35
2019-06-26T07:25:53.310Z,70.35
2019-06-26T07:26:53.348Z,69.92
2019-06-26T07:27:53.314Z,69.72
2019-06-26T07:28:53.284Z,70.08
2019-06-26T07:29:53.282Z,69.16
2019-06-26T07:30:53.263Z,68.63
2019-06-26T07:31:53.251Z,68.24
2019-06-26T07:32:53.252Z,67.51
2019-06-26T07:33:55.588Z,66.99
2019-06-26T07:34:53.228Z,65.80
2019-06-26T07:35:53.215Z,66.19
2019-06-26T07:36:53.211Z,65.37
2019-06-26T07:37:53.245Z,64.78
2019-06-26T07:38:53.204Z,64.68
2019-06-26T07:39:57.560Z,64.88
2019-06-26T07:40:54.169Z,64.78
2019-06-26T07:41:53.161Z,64.28
2019-06-26T07:42:53.157Z,63.89
2019-06-26T07:43:53.154Z,64.18
2019-06-26T07:44:53.127Z,60.36
2019-06-26T07:45:53.105Z,61.08
2019-06-26T07:46:53.096Z,63.26
2019-06-26T07:47:53.100Z,64.78
2019-06-26T07:48:53.070Z,64.58
2019-06-26T07:49:53.102Z,66.36
2019-06-26T07:50:53.071Z,66.06
2019-06-26T07:51:53.061Z,66.13
2019-06-26T07:52:53.060Z,66.52
2019-06-26T07:53:53.044Z,65.23
2019-06-26T07:54:53.059Z,65.34
2019-06-26T07:55:53.024Z,66.03
2019-06-26T07:56:52.989Z,66.13
2019-06-26T07:57:52.991Z,64.74
2019-06-26T07:58:52.975Z,64.05
2019-06-26T07:59:52.979Z,64.94
2019-06-26T08:00:53.030Z,64.45
2019-06-26T08:01:52.971Z,64.54
2019-06-26T08:02:52.942Z,66.22
2019-06-26T08:03:52.947Z,66.19
2019-06-26T08:04:52.901Z,64.51
2019-06-26T08:05:52.905Z,65.20
2019-06-26T08:06:52.926Z,63.89
2019-06-26T08:07:52.913Z,63.59
2019-06-26T08:08:52.879Z,63.00
2019-06-26T08:09:53.162Z,63.23
2019-06-26T08:10:52.848Z,63.33
2019-06-26T08:11:52.839Z,63.72
2019-06-26T08:12:52.811Z,63.62
2019-06-26T08:13:52.816Z,63.85
2019-06-26T08:14:52.806Z,63.82
2019-06-26T08:15:52.824Z,64.32
2019-06-26T08:16:52.776Z,64.42
2019-06-26T08:18:00.425Z,62.24
2019-06-26T08:18:53.765Z,63.10
2019-06-26T08:19:52.768Z,64.88
2019-06-26T08:21:10.962Z,63.00
2019-06-26T08:21:53.843Z,63.40
2019-06-26T08:22:52.715Z,62.28
2019-06-26T08:23:52.716Z,63.56
2019-06-26T08:24:52.691Z,64.25
2019-06-26T08:25:52.691Z,61.79
2019-06-26T08:26:52.675Z,61.59
2019-06-26T08:27:52.665Z,60.70
2019-06-26T08:28:52.659Z,61.88
2019-06-26T08:29:52.637Z,60.50
2019-06-26T08:30:52.873Z,62.48
2019-06-26T08:31:52.626Z,61.49
2019-06-26T08:32:52.602Z,61.56
2019-06-26T08:33:52.611Z,60.60
2019-06-26T08:34:52.610Z,59.91
2019-06-26T08:35:52.586Z,62.05
2019-06-26T08:36:52.586Z,60.97
2019-06-26T08:38:09.025Z,60.77
2019-06-26T08:38:53.553Z,59.29
2019-06-26T08:39:52.533Z,61.07
2019-06-26T08:40:52.580Z,61.46
2019-06-26T08:41:52.513Z,61.13
2019-06-26T08:42:52.515Z,60.15
2019-06-26T08:43:52.507Z,59.66
2019-06-26T08:44:52.632Z,60.35
2019-06-26T08:45:52.472Z,59.46
2019-06-26T08:46:52.475Z,58.97
2019-06-26T08:47:52.480Z,59.85
2019-06-26T08:48:52.468Z,59.06
2019-06-26T08:49:52.418Z,58.28
2019-06-26T08:50:52.433Z,57.95
2019-06-26T08:51:52.602Z,59.11
2019-06-26T08:52:52.395Z,56.81
2019-06-26T08:53:52.408Z,57.87
2019-06-26T08:54:52.373Z,56.16
2019-06-26T08:55:52.365Z,55.06
2019-06-26T08:56:52.364Z,54.83
2019-06-26T08:57:52.422Z,54.10
2019-06-26T08:58:52.326Z,53.97
2019-06-26T08:59:52.346Z,54.14
2019-06-26T09:00:52.346Z,53.03
2019-06-26T09:01:52.335Z,51.49
2019-06-26T09:02:52.324Z,51.27
2019-06-26T09:03:52.288Z,50.68
2019-06-26T09:04:52.298Z,51.83
2019-06-26T09:05:52.258Z,51.44
2019-06-26T09:06:52.247Z,50.78
2019-06-26T09:07:52.244Z,51.56
2019-06-26T09:08:52.255Z,49.58
2019-06-26T09:09:52.224Z,51.42
2019-06-26T09:10:52.231Z,50.12
2019-06-26T09:11:52.205Z,49.41
2019-06-26T09:12:52.263Z,48.21
2019-06-26T09:13:52.176Z,49.29
2019-06-26T09:14:52.181Z,46.36
2019-06-26T09:15:52.164Z,46.57
2019-06-26T09:16:52.167Z,46.45
2019-06-26T09:17:52.142Z,48.41
2019-06-26T09:18:52.146Z,46.26
2019-06-26T09:19:52.113Z,46.47
2019-06-26T09:20:52.143Z,46.55
2019-06-26T09:21:52.098Z,46.55
2019-06-26T09:22:52.109Z,44.96
2019-06-26T09:23:52.069Z,45.84
2019-06-26T09:24:52.156Z,44.65
2019-06-26T09:25:52.112Z,46.01
2019-06-26T09:26:52.067Z,44.92
2019-06-26T09:27:52.052Z,43.95
2019-06-26T09:28:52.022Z,43.92
2019-06-26T09:29:52.016Z,44.51
2019-06-26T09:30:52.046Z,44.41
2019-06-26T09:31:52.007Z,44.12
2019-06-26T09:32:52.001Z,43.53
2019-06-26T09:33:52.203Z,43.53
2019-06-26T09:34:52.086Z,43.12
2019-06-26T09:35:51.955Z,44.09
2019-06-26T09:36:51.943Z,42.65
2019-06-26T09:37:51.988Z,43.41
2019-06-26T09:38:51.921Z,42.75
2019-06-26T09:39:52.052Z,43.43
2019-06-26T09:40:51.915Z,43.53
2019-06-26T09:41:51.944Z,43.32
2019-06-26T09:42:51.903Z,43.51
2019-06-26T09:43:51.880Z,43.41
2019-06-26T09:44:51.862Z,43.61
2019-06-26T09:45:51.856Z,43.32
2019-06-26T09:46:51.856Z,43.80
2019-06-26T09:47:51.838Z,43.99
2019-06-26T09:48:53.504Z,44.46
2019-06-26T09:49:51.855Z,43.98
2019-06-26T09:50:51.796Z,43.95
2019-06-26T09:51:51.793Z,44.24
2019-06-26T09:52:51.771Z,42.40
2019-06-26T09:53:51.759Z,43.66
2019-06-26T09:54:51.959Z,43.27
2019-06-26T09:55:51.781Z,43.44
2019-06-26T09:56:51.786Z,42.16
2019-06-26T09:57:51.718Z,43.62
2019-06-26T09:58:51.744Z,42.72
2019-06-26T09:59:51.821Z,41.46
2019-06-26T10:00:51.702Z,40.97
2019-06-26T10:01:51.782Z,42.16
2019-06-26T10:02:51.680Z,41.48
2019-06-26T10:03:51.660Z,40.91
2019-06-26T10:04:51.653Z,43.15
2019-06-26T10:05:51.670Z,43.44
2019-06-26T10:06:51.684Z,42.35
2019-06-26T10:07:51.629Z,42.04
2019-06-26T10:08:54.055Z,39.90
2019-06-26T10:09:51.620Z,39.14
2019-06-26T10:10:51.609Z,41.22
2019-06-26T10:11:51.603Z,42.28
2019-06-26T10:12:51.585Z,40.23
2019-06-26T10:13:51.559Z,40.91
2019-06-26T10:14:51.545Z,42.08
2019-06-26T10:15:51.764Z,42.16
2019-06-26T10:16:51.518Z,41.09
2019-06-26T10:17:51.529Z,40.42
2019-06-26T10:19:05.718Z,42.16
2019-06-26T10:19:54.122Z,40.23
2019-06-26T10:20:51.479Z,41.11
2019-06-26T10:21:51.498Z,40.91
2019-06-26T10:22:51.456Z,41.69
2019-06-26T10:23:51.444Z,42.65
2019-06-26T10:24:51.452Z,41.86
2019-06-26T10:25:51.469Z,42.14
2019-06-26T10:26:51.436Z,41.14
2019-06-26T10:27:51.413Z,41.83
2019-06-26T10:28:51.396Z,39.69
2019-06-26T10:29:51.397Z,40.85
2019-06-26T10:30:51.372Z,40.09
2019-06-26T10:31:51.385Z,41.65
2019-06-26T10:32:51.362Z,40.95
2019-06-26T10:33:51.364Z,40.85
2019-06-26T10:34:51.346Z,40.54
2019-06-26T10:35:51.342Z,41.42
2019-06-26T10:36:51.420Z,41.22
2019-06-26T10:37:51.412Z,41.47
2019-06-26T10:38:51.356Z,41.39
2019-06-26T10:39:51.300Z,41.06
2019-06-26T10:40:51.345Z,39.82
2019-06-26T10:41:54.763Z,39.80
2019-06-26T10:42:51.412Z,40.31
2019-06-26T10:43:51.258Z,40.77
2019-06-26T10:44:51.276Z,40.77
2019-06-26T10:45:51.219Z,40.19
2019-06-26T10:46:51.294Z,39.80
2019-06-26T10:47:51.224Z,39.22
2019-06-26T10:48:51.210Z,39.34
2019-06-26T10:49:51.211Z,39.84
2019-06-26T10:50:58.085Z,39.67
2019-06-26T10:51:52.229Z,39.47
2019-06-26T10:52:51.176Z,40.72
2019-06-26T10:53:51.167Z,39.12
2019-06-26T10:54:51.147Z,38.25
2019-06-26T10:55:51.279Z,36.30
2019-06-26T10:56:51.139Z,37.18
2019-06-26T10:57:51.372Z,37.47
2019-06-26T10:58:51.108Z,37.88
2019-06-26T10:59:55.343Z,36.30
2019-06-26T11:00:51.081Z,36.99
2019-06-26T11:01:51.065Z,38.17
2019-06-26T11:02:51.055Z,36.32
2019-06-26T11:03:51.046Z,36.69
2019-06-26T11:04:51.055Z,36.60
2019-06-26T11:05:51.037Z,37.98
2019-06-26T11:06:51.005Z,39.22
2019-06-26T11:07:51.054Z,39.16
2019-06-26T11:08:51.082Z,39.84
2019-06-26T11:09:50.988Z,39.43
2019-06-26T11:10:50.962Z,39.03
2019-06-26T11:11:50.984Z,38.73
2019-06-26T11:12:50.951Z,39.37
2019-06-26T11:13:50.994Z,38.00
2019-06-26T11:14:50.958Z,38.58
2019-06-26T11:15:50.910Z,37.71
2019-06-26T11:16:50.936Z,36.25
2019-06-26T11:17:50.893Z,36.58
2019-06-26T11:18:50.920Z,36.19
2019-06-26T11:19:50.891Z,37.92
2019-06-26T11:20:50.874Z,38.29
2019-06-26T11:21:50.894Z,36.54
2019-06-26T11:22:50.891Z,38.12
2019-06-26T11:23:50.839Z,38.21
2019-06-26T11:24:50.895Z,39.01
2019-06-26T11:25:50.874Z,38.81
2019-06-26T11:26:50.798Z,40.08
2019-06-26T11:27:50.833Z,39.28
2019-06-26T11:28:50.897Z,39.39
2019-06-26T11:29:50.792Z,40.00
2019-06-26T11:30:50.763Z,40.09
2019-06-26T11:31:50.788Z,40.97
2019-06-26T11:32:50.769Z,39.98
2019-06-26T11:33:50.735Z,39.78
2019-06-26T11:34:50.726Z,39.88
2019-06-26T11:35:50.836Z,40.85
2019-06-26T11:37:03.263Z,40.00
2019-06-26T11:37:51.711Z,40.77
2019-06-26T11:38:50.713Z,39.88
2019-06-26T11:39:50.906Z,39.78
2019-06-26T11:40:50.693Z,40.75
2019-06-26T11:41:50.656Z,40.08
2019-06-26T11:42:50.636Z,39.49
2019-06-26T11:43:50.654Z,38.91
2019-06-26T11:44:50.619Z,38.70
2019-06-26T11:45:50.706Z,38.42
2019-06-26T11:46:50.625Z,40.00
2019-06-26T11:47:50.587Z,39.70
2019-06-26T11:48:50.624Z,39.80
2019-06-26T11:49:59.915Z,39.61
2019-06-26T11:50:51.555Z,40.79
2019-06-26T11:51:50.558Z,39.90
2019-06-26T11:52:50.536Z,39.62
2019-06-26T11:53:50.550Z,39.90
2019-06-26T11:55:02.220Z,39.22
2019-06-26T11:55:51.515Z,38.52
2019-06-26T11:56:50.562Z,38.13
2019-06-26T11:57:50.505Z,38.85
2019-06-26T11:58:50.507Z,40.13
2019-06-26T11:59:50.517Z,39.55
2019-06-26T12:00:50.478Z,38.95
2019-06-26T12:01:50.456Z,40.11
2019-06-26T12:02:50.494Z,39.92
2019-06-26T12:03:50.440Z,39.53
2019-06-26T12:04:50.431Z,38.93
2019-06-26T12:05:50.443Z,39.32
2019-06-26T12:06:50.437Z,39.04
2019-06-26T12:07:50.396Z,39.34
2019-06-26T12:08:50.538Z,38.95
2019-06-26T12:09:50.483Z,39.14
2019-06-26T12:10:50.398Z,39.22
2019-06-26T12:11:50.421Z,37.96
2019-06-26T12:12:50.374Z,38.57
2019-06-26T12:13:50.377Z,39.06
2019-06-26T12:14:50.316Z,39.24
2019-06-26T12:15:50.328Z,38.17
2019-06-26T12:16:50.319Z,37.39
2019-06-26T12:17:50.309Z,37.66
2019-06-26T12:18:50.311Z,38.64
2019-06-26T12:19:50.337Z,38.15
2019-06-26T12:20:50.256Z,37.86
2019-06-26T12:21:50.332Z,38.17
2019-06-26T12:22:50.282Z,38.17
2019-06-26T12:23:50.255Z,38.85
2019-06-26T12:24:50.253Z,40.54
2019-06-26T12:25:50.213Z,38.67
2019-06-26T12:26:50.321Z,39.04
2019-06-26T12:27:50.186Z,38.75
2019-06-26T12:28:50.183Z,39.34
2019-06-26T12:29:50.185Z,40.00
2019-06-26T12:30:50.228Z,38.93
2019-06-26T12:31:50.146Z,39.03
2019-06-26T12:33:02.293Z,38.25
2019-06-26T12:33:51.139Z,39.14
2019-06-26T12:34:50.160Z,38.56
2019-06-26T12:35:50.137Z,39.24
2019-06-26T12:36:50.144Z,39.16
2019-06-26T12:37:50.092Z,39.86
2019-06-26T12:38:50.095Z,40.39
2019-06-26T12:39:50.071Z,40.70
2019-06-26T12:40:50.163Z,41.32
2019-06-26T12:41:50.057Z,41.35
2019-06-26T12:42:50.063Z,41.63
2019-06-26T12:43:50.084Z,42.46
2019-06-26T12:44:50.076Z,42.87
2019-06-26T12:45:50.019Z,43.96
2019-06-26T12:46:50.081Z,41.93
2019-06-26T12:47:50.028Z,44.30
2019-06-26T12:48:49.999Z,45.03
2019-06-26T12:49:49.973Z,45.32
2019-06-26T12:50:50.019Z,45.81
2019-06-26T12:51:49.954Z,45.93
2019-06-26T12:52:49.944Z,45.05